Weather History for Ortonville, MN

Change the Weather History Date:

Thursday, October 4, 2012

  Actual Average (KAQP) Record (KAQP)
Temperature  
Mean Temperature 44 °F -  
Max Temperature 51 °F 62 °F 84 °F (2011)
Min Temperature 37 °F 37 °F 23 °F (2004)
Degree Days  
Heating Degree Days 21    
Moisture  
Dew Point 33 °F    
Average Humidity 69    
Maximum Humidity 87    
Minimum Humidity 49    
Precipitation  
Precipitation 0.00 in - - ()
Sea Level Pressure  
Sea Level Pressure 30.06 in    
Wind  
Wind Speed 23 mph (NW)    
Max Wind Speed 31 mph    
Max Gust Speed 45 mph    
Visibility 9 miles    
Events Rain    
Averages and records for this station are not official NWS values.
T = Trace of Precipitation, MM = Missing Value Source: NWS Daily Summary

Daily Weather History Graph

Daily Weather History Graph

Search for Another Location

Airport:

Trip Planner

Search our weather history database for the weather conditions in past years. The results will help you decide how hot, cold, wet, or windy it might be!

Date:

Astronomy

Oct. 04, 2012 Rise Set
Actual Time 7:28 AM CDT 6:59 PM CDT
Civil Twilight 6:58 AM CDT 7:28 PM CDT
Nautical Twilight 6:24 AM CDT 8:02 PM CDT
Astronomical Twilight 5:50 AM CDT 8:37 PM CDT
Moon 9:22 PM CDT (10/4) 11:59 AM CDT (10/4)
Length of Visible Light 12h 30m
Length of Day
11h 31m
Waning Gibbous, 82% of the Moon is Illuminated
Oct 4
Waning Gibbous
Oct 8
Last Quarter
Oct 15
New
Oct 21
First Quarter
Oct 29
Full

Hourly Weather History & Observations

Time (CDT) Temp. Windchill Dew Point Humidity Pressure Visibility Wind Dir Wind Speed Gust Speed Precip Events Conditions
12:03 AM 51.8 °F - 41.0 °F 67% 29.73 in 10.0 mi NW 20.7 mph 29.9 mph N/A   Clear
12:22 AM 48.2 °F - 41.0 °F 76% 29.73 in 10.0 mi NW 25.3 mph 34.5 mph N/A   Clear
12:37 AM 48.2 °F - 41.0 °F 76% 29.74 in 10.0 mi NNW 20.7 mph 34.5 mph N/A   Clear
1:04 AM 46.4 °F 37.9 °F 39.2 °F 76% 29.74 in 10.0 mi NW 25.3 mph 35.7 mph N/A   Scattered Clouds
1:24 AM 46.4 °F 37.4 °F 39.2 °F 76% 29.76 in 10.0 mi NW 28.8 mph 39.1 mph N/A   Overcast
1:41 AM 46.4 °F 37.9 °F 39.2 °F 76% 29.78 in 10.0 mi NW 25.3 mph 41.4 mph N/A   Overcast
2:04 AM 44.6 °F 35.3 °F 37.4 °F 76% 29.81 in 10.0 mi NW 26.5 mph 38.0 mph N/A   Overcast
2:24 AM 44.6 °F 34.9 °F 37.4 °F 76% 29.83 in 10.0 mi WNW 28.8 mph 34.5 mph N/A   Overcast
2:44 AM 44.6 °F 35.3 °F 37.4 °F 76% 29.85 in 10.0 mi WNW 26.5 mph 36.8 mph N/A   Overcast
3:03 AM 44.6 °F 35.7 °F 37.4 °F 76% 29.85 in 10.0 mi NW 24.2 mph 41.4 mph N/A   Overcast
3:22 AM 44.6 °F 35.1 °F 37.4 °F 76% 29.86 in 7.0 mi WNW 27.6 mph 42.6 mph N/A   Overcast
3:44 AM 42.8 °F 32.1 °F 37.4 °F 81% 29.86 in 4.0 mi WNW 31.1 mph 39.1 mph N/A   Overcast
3:50 AM 42.8 °F 32.3 °F 37.4 °F 81% 29.86 in 4.0 mi WNW 29.9 mph 39.1 mph N/A   Overcast
4:23 AM 39.2 °F 28.5 °F 33.8 °F 81% 29.89 in 10.0 mi WNW 24.2 mph 43.7 mph N/A   Overcast
4:43 AM 39.2 °F 28.0 °F 33.8 °F 81% 29.91 in 10.0 mi WNW 26.5 mph 38.0 mph N/A   Overcast
5:01 AM 39.2 °F 27.8 °F 33.8 °F 81% 29.92 in 10.0 mi NW 27.6 mph 39.1 mph N/A   Overcast
5:23 AM 39.2 °F 27.8 °F 33.8 °F 81% 29.93 in 10.0 mi NW 27.6 mph 44.9 mph N/A   Overcast
5:27 AM 39.2 °F 28.0 °F 33.8 °F 81% 29.93 in 10.0 mi NW 26.5 mph 41.4 mph N/A   Overcast
6:03 AM 39.2 °F 28.7 °F 32.0 °F 75% 29.95 in 10.0 mi NW 23.0 mph 36.8 mph N/A   Overcast
6:12 AM 39.2 °F 27.4 °F 32.0 °F 75% 29.95 in 10.0 mi NW 29.9 mph 38.0 mph N/A   Overcast
6:39 AM 39.2 °F 28.3 °F 33.8 °F 81% 29.98 in 10.0 mi NW 25.3 mph 35.7 mph N/A   Overcast
6:56 AM 39.2 °F 27.6 °F 33.8 °F 81% 29.99 in 4.0 mi WNW 28.8 mph 39.1 mph N/A   Haze
7:24 AM 37.4 °F 26.1 °F 33.8 °F 87% 30.01 in 3.0 mi NW 24.2 mph 34.5 mph N/A   Light Drizzle
7:33 AM 37.4 °F 26.4 °F 33.8 °F 87% 30.01 in 3.0 mi WNW 23.0 mph 31.1 mph N/A   Light Drizzle
8:02 AM 37.4 °F 26.4 °F 33.8 °F 87% 30.03 in 5.0 mi WNW 23.0 mph 34.5 mph N/A   Light Drizzle
8:16 AM 37.4 °F 26.9 °F 33.8 °F 87% 30.03 in 10.0 mi NW 20.7 mph 32.2 mph N/A   Overcast
8:44 AM 37.4 °F 27.2 °F 33.8 °F 87% 30.04 in 10.0 mi NW 19.6 mph 32.2 mph N/A   Overcast
9:04 AM 37.4 °F 26.4 °F 32.0 °F 81% 30.06 in 10.0 mi NW 23.0 mph 36.8 mph N/A   Overcast
9:17 AM 37.4 °F 25.9 °F 32.0 °F 81% 30.06 in 10.0 mi NW 25.3 mph 35.7 mph N/A   Overcast
9:40 AM 39.2 °F 27.2 °F 32.0 °F 75% 30.07 in 10.0 mi NW 31.1 mph 38.0 mph N/A   Overcast
10:04 AM 39.2 °F 29.0 °F 30.2 °F 70% 30.09 in 10.0 mi NW 21.9 mph 35.7 mph N/A   Overcast
10:23 AM 39.2 °F 28.5 °F 30.2 °F 70% 30.10 in 10.0 mi NW 24.2 mph 35.7 mph N/A   Overcast
10:32 AM 41.0 °F 30.9 °F 30.2 °F 65% 30.10 in 10.0 mi NW 24.2 mph 33.4 mph N/A   Overcast
11:04 AM 41.0 °F 31.6 °F 30.2 °F 65% 30.11 in 10.0 mi NW 20.7 mph 36.8 mph N/A   Overcast
11:08 AM 41.0 °F 29.8 °F 30.2 °F 65% 30.11 in 10.0 mi NW 29.9 mph 36.8 mph N/A   Overcast
11:44 AM 42.8 °F 32.1 °F 30.2 °F 61% 30.12 in 10.0 mi NW 31.1 mph 36.8 mph N/A   Overcast
12:03 PM 42.8 °F 34.0 °F 30.2 °F 61% 30.13 in 10.0 mi NW 20.7 mph 34.5 mph N/A   Overcast
12:06 PM 42.8 °F 34.3 °F 30.2 °F 61% 30.13 in 10.0 mi WNW 19.6 mph 34.5 mph N/A   Overcast
12:42 PM 42.8 °F 33.1 °F 30.2 °F 61% 30.14 in 10.0 mi NW 25.3 mph 34.5 mph N/A   Overcast
12:56 PM 42.8 °F 33.8 °F 30.2 °F 61% 30.15 in 10.0 mi NW 21.9 mph 33.4 mph N/A   Overcast
1:24 PM 42.8 °F 34.0 °F 30.2 °F 61% 30.15 in 10.0 mi NW 20.7 mph 31.1 mph N/A   Overcast
1:37 PM 44.6 °F 36.4 °F 30.2 °F 57% 30.15 in 10.0 mi NW 20.7 mph 29.9 mph N/A   Overcast
2:03 PM 44.6 °F 35.7 °F 30.2 °F 57% 30.15 in 10.0 mi NW 24.2 mph 31.1 mph N/A   Overcast
2:34 PM 42.8 °F 34.0 °F 35.6 °F 76% 30.15 in 10.0 mi NW 20.7 mph 32.2 mph N/A Rain Light Rain
2:58 PM 42.8 °F 34.0 °F 32.0 °F 66% 30.16 in 10.0 mi NW 20.7 mph 31.1 mph N/A   Overcast
3:22 PM 44.6 °F 35.1 °F 30.2 °F 57% 30.16 in 10.0 mi NW 27.6 mph 33.4 mph N/A   Overcast
3:38 PM 44.6 °F 35.5 °F 30.2 °F 57% 30.17 in 10.0 mi NW 25.3 mph 33.4 mph N/A   Overcast
4:02 PM 44.6 °F 36.6 °F 32.0 °F 61% 30.17 in 10.0 mi NW 19.6 mph 24.2 mph N/A   Overcast
4:38 PM 44.6 °F 36.9 °F 30.2 °F 57% 30.18 in 10.0 mi NW 18.4 mph 33.4 mph N/A   Overcast
4:59 PM 44.6 °F 36.6 °F 30.2 °F 57% 30.18 in 10.0 mi WNW 19.6 mph 27.6 mph N/A   Overcast
5:07 PM 46.4 °F 39.5 °F 30.2 °F 53% 30.18 in 10.0 mi NW 17.3 mph 25.3 mph N/A   Overcast
5:27 PM 44.6 °F 36.9 °F 30.2 °F 57% 30.19 in 10.0 mi NW 18.4 mph 29.9 mph N/A   Overcast
5:57 PM 44.6 °F 36.6 °F 30.2 °F 57% 30.19 in 10.0 mi WNW 19.6 mph 24.2 mph N/A   Overcast
6:09 PM 44.6 °F 36.1 °F 30.2 °F 57% 30.19 in 10.0 mi WNW 21.9 mph 26.5 mph N/A   Overcast
6:42 PM 42.8 °F 34.5 °F 32.0 °F 66% 30.20 in 10.0 mi WNW 18.4 mph 21.9 mph N/A   Overcast
7:01 PM 42.8 °F 34.8 °F 30.2 °F 61% 30.20 in 10.0 mi WNW 17.3 mph 26.5 mph N/A   Overcast
7:20 PM 42.8 °F 35.4 °F 30.2 °F 61% 30.20 in 10.0 mi WNW 15.0 mph 21.9 mph N/A   Overcast
7:30 PM 42.8 °F 35.1 °F 32.0 °F 66% 30.21 in 10.0 mi WNW 16.1 mph 24.2 mph N/A   Overcast
7:55 PM 42.8 °F 35.1 °F 30.2 °F 61% 30.21 in 10.0 mi WNW 16.1 mph 20.7 mph N/A   Mostly Cloudy
8:14 PM 41.0 °F 33.9 °F 30.2 °F 65% 30.21 in 10.0 mi WNW 12.7 mph - N/A   Scattered Clouds
8:39 PM 42.8 °F 34.3 °F 32.0 °F 66% 30.22 in 10.0 mi WNW 19.6 mph 25.3 mph N/A   Overcast
9:04 PM 42.8 °F 33.3 °F 32.0 °F 66% 30.22 in 10.0 mi NW 24.2 mph 31.1 mph N/A   Mostly Cloudy
9:25 PM 42.8 °F 33.8 °F 30.2 °F 61% 30.23 in 10.0 mi WNW 21.9 mph 27.6 mph N/A   Overcast
9:41 PM 42.8 °F 33.8 °F 30.2 °F 61% 30.22 in 10.0 mi WNW 21.9 mph 26.5 mph N/A   Overcast
10:01 PM 42.8 °F 35.1 °F 30.2 °F 61% 30.23 in 10.0 mi WNW 16.1 mph 27.6 mph N/A   Overcast
10:41 PM 42.8 °F 35.4 °F 28.4 °F 57% 30.23 in 10.0 mi WNW 15.0 mph 26.5 mph N/A   Overcast
11:01 PM 42.8 °F 35.4 °F 26.6 °F 53% 30.23 in 10.0 mi WNW 15.0 mph 20.7 mph N/A   Overcast
11:21 PM 42.8 °F 34.8 °F 24.8 °F 49% 30.23 in 10.0 mi NW 17.3 mph 24.2 mph N/A   Overcast
11:41 PM 41.0 °F 33.9 °F 24.8 °F 53% 30.23 in 10.0 mi WNW 12.7 mph 25.3 mph N/A   Overcast